Portada
METAR-TAF:

METAR-TAF

Aeropuertos :

Madrid-Cuatro Vientos, España

Aeropuerto de Madrid-Cuatro Vientos

latitud: 40-23N, longitud: 003-47W, altitud: 690 m

Observación

El informe se hizo hace 23 minutos, a las 18:00 UTC
Viento 7 kt del oeste-suroeste, variando entre sur-suroeste y oeste
Temperatura 35°C
Humedad 22%
Presión 1018 hPa
Visibilidad 10 km o más
Escasas nubes a una altura de 5000 ft

METAR: LEVS 221800Z 24007KT 210V280 9999 FEW050 35/10 Q1018

Hora: 20:23 (18:23 UTC)

Pronóstico

El informe se hizo hace 1 hora y 23 minutos, a las 17:00 UTC
Pronóstico válido del 22 a las 18 UTC al 23 a las 03 UTC
Viento 7 kt del oeste
Visibilidad 10 km o más
sin nubes por debajo de 1500 m y sin presencia de cumulonimbus.

TAF: LEVS 221700Z 2218/2303 26007KT CAVOK

Observaciones y pronósticos meteorológicos de más de 4000 aeropuertos (mensajes METAR y TAF).

Los puntos amarillos y rojos representan las estaciones disponibles.

Ponga el ratón en el punto deseado para ver el nombre de la estación.

Haga clic para ver las observaciones y los pronósticos meteorológicos.

Para cambiar el mapa : haga clic en los botones verdes con una cruz de color negro para hacer un zoom, en el botón verde con un guión para alejar o en las flechas verdes para mapas adyacentes.


METAR-TAF: